sensor_id;sensor_type;location;lat;lon;timestamp;temperature;humidity
63771;DHT22;60282;43.862;18.430;2023-04-24T00:00:31;10.60;99.90
63771;DHT22;60282;43.862;18.430;2023-04-24T00:02:57;10.60;99.90
63771;DHT22;60282;43.862;18.430;2023-04-24T00:05:23;9.00;99.90
63771;DHT22;60282;43.862;18.430;2023-04-24T00:07:49;10.70;99.90
63771;DHT22;60282;43.862;18.430;2023-04-24T00:10:18;10.70;99.90
63771;DHT22;60282;43.862;18.430;2023-04-24T00:12:44;10.70;99.90
63771;DHT22;60282;43.862;18.430;2023-04-24T00:15:10;10.70;99.90
63771;DHT22;60282;43.862;18.430;2023-04-24T00:17:36;10.70;99.90
63771;DHT22;60282;43.862;18.430;2023-04-24T00:20:03;10.60;99.90
63771;DHT22;60282;43.862;18.430;2023-04-24T00:22:30;10.60;99.90
63771;DHT22;60282;43.862;18.430;2023-04-24T00:24:57;10.60;99.90
63771;DHT22;60282;43.862;18.430;2023-04-24T00:27:23;10.60;99.90
63771;DHT22;60282;43.862;18.430;2023-04-24T00:29:48;10.60;99.90
63771;DHT22;60282;43.862;18.430;2023-04-24T00:32:14;10.60;99.90
63771;DHT22;60282;43.862;18.430;2023-04-24T00:34:41;10.50;99.90
63771;DHT22;60282;43.862;18.430;2023-04-24T00:37:07;10.50;99.90
63771;DHT22;60282;43.862;18.430;2023-04-24T00:39:33;10.50;99.90
63771;DHT22;60282;43.862;18.430;2023-04-24T00:41:59;10.50;99.90
63771;DHT22;60282;43.862;18.430;2023-04-24T00:44:25;10.50;99.90
63771;DHT22;60282;43.862;18.430;2023-04-24T00:49:21;10.40;99.90
63771;DHT22;60282;43.862;18.430;2023-04-24T00:51:47;10.60;99.90
63771;DHT22;60282;43.862;18.430;2023-04-24T00:54:15;10.60;99.90
63771;DHT22;60282;43.862;18.430;2023-04-24T00:56:42;10.60;99.90
63771;DHT22;60282;43.862;18.430;2023-04-24T00:59:08;10.60;99.90
63771;DHT22;60282;43.862;18.430;2023-04-24T01:01:35;10.60;99.90
63771;DHT22;60282;43.862;18.430;2023-04-24T01:04:01;10.60;99.90
63771;DHT22;60282;43.862;18.430;2023-04-24T01:06:28;10.60;99.90
63771;DHT22;60282;43.862;18.430;2023-04-24T01:08:54;10.60;99.90
63771;DHT22;60282;43.862;18.430;2023-04-24T01:11:21;10.60;99.90
63771;DHT22;60282;43.862;18.430;2023-04-24T01:13:47;10.60;99.90
63771;DHT22;60282;43.862;18.430;2023-04-24T01:16:14;10.60;99.90
63771;DHT22;60282;43.862;18.430;2023-04-24T01:18:43;10.60;99.90
63771;DHT22;60282;43.862;18.430;2023-04-24T01:21:10;10.60;99.90
63771;DHT22;60282;43.862;18.430;2023-04-24T01:23:38;10.60;99.90
63771;DHT22;60282;43.862;18.430;2023-04-24T01:26:04;10.50;99.90
63771;DHT22;60282;43.862;18.430;2023-04-24T01:28:30;9.70;99.90
63771;DHT22;60282;43.862;18.430;2023-04-24T01:30:56;10.50;99.90
63771;DHT22;60282;43.862;18.430;2023-04-24T01:33:22;10.50;99.90
63771;DHT22;60282;43.862;18.430;2023-04-24T01:35:49;10.40;99.90
63771;DHT22;60282;43.862;18.430;2023-04-24T01:38:14;10.50;99.90
63771;DHT22;60282;43.862;18.430;2023-04-24T01:40:40;10.50;99.90
63771;DHT22;60282;43.862;18.430;2023-04-24T01:43:06;10.50;99.90
63771;DHT22;60282;43.862;18.430;2023-04-24T01:45:33;10.50;99.90
63771;DHT22;60282;43.862;18.430;2023-04-24T01:47:58;10.50;99.90
63771;DHT22;60282;43.862;18.430;2023-04-24T01:50:25;10.50;99.90
63771;DHT22;60282;43.862;18.430;2023-04-24T01:52:51;10.50;99.90
63771;DHT22;60282;43.862;18.430;2023-04-24T01:55:17;10.50;99.90
63771;DHT22;60282;43.862;18.430;2023-04-24T01:57:43;10.60;99.90
63771;DHT22;60282;43.862;18.430;2023-04-24T02:00:09;10.60;99.90
63771;DHT22;60282;43.862;18.430;2023-04-24T02:02:37;10.50;99.90
63771;DHT22;60282;43.862;18.430;2023-04-24T02:05:06;10.50;99.90
63771;DHT22;60282;43.862;18.430;2023-04-24T02:07:32;10.50;99.90
63771;DHT22;60282;43.862;18.430;2023-04-24T02:09:58;10.50;99.90
63771;DHT22;60282;43.862;18.430;2023-04-24T02:12:24;10.40;99.90
63771;DHT22;60282;43.862;18.430;2023-04-24T02:14:50;10.40;99.90
63771;DHT22;60282;43.862;18.430;2023-04-24T02:17:17;10.40;99.90
63771;DHT22;60282;43.862;18.430;2023-04-24T02:19:44;10.40;99.90
63771;DHT22;60282;43.862;18.430;2023-04-24T02:22:11;10.40;99.90
63771;DHT22;60282;43.862;18.430;2023-04-24T02:24:37;10.40;99.90
63771;DHT22;60282;43.862;18.430;2023-04-24T02:27:03;10.40;99.90
63771;DHT22;60282;43.862;18.430;2023-04-24T02:29:29;10.40;99.90
63771;DHT22;60282;43.862;18.430;2023-04-24T02:31:55;10.40;99.90
63771;DHT22;60282;43.862;18.430;2023-04-24T02:34:21;10.50;99.90
63771;DHT22;60282;43.862;18.430;2023-04-24T02:36:48;10.50;99.90
63771;DHT22;60282;43.862;18.430;2023-04-24T02:39:14;10.50;99.90
63771;DHT22;60282;43.862;18.430;2023-04-24T02:41:45;10.50;99.90
63771;DHT22;60282;43.862;18.430;2023-04-24T02:44:10;10.50;99.90
63771;DHT22;60282;43.862;18.430;2023-04-24T02:46:36;10.60;99.90
63771;DHT22;60282;43.862;18.430;2023-04-24T02:49:02;10.60;99.90
63771;DHT22;60282;43.862;18.430;2023-04-24T02:51:28;10.60;99.90
63771;DHT22;60282;43.862;18.430;2023-04-24T02:53:55;10.70;99.90
63771;DHT22;60282;43.862;18.430;2023-04-24T02:56:20;10.70;99.90
63771;DHT22;60282;43.862;18.430;2023-04-24T02:58:46;11.00;99.90
63771;DHT22;60282;43.862;18.430;2023-04-24T03:01:12;11.00;99.90
63771;DHT22;60282;43.862;18.430;2023-04-24T03:03:39;11.10;99.90
63771;DHT22;60282;43.862;18.430;2023-04-24T03:06:05;11.20;99.90
63771;DHT22;60282;43.862;18.430;2023-04-24T03:08:32;11.20;99.90
63771;DHT22;60282;43.862;18.430;2023-04-24T03:10:57;11.20;99.90
63771;DHT22;60282;43.862;18.430;2023-04-24T03:13:23;11.10;99.90
63771;DHT22;60282;43.862;18.430;2023-04-24T03:15:50;11.10;99.90
63771;DHT22;60282;43.862;18.430;2023-04-24T03:18:16;11.20;99.90
63771;DHT22;60282;43.862;18.430;2023-04-24T03:20:42;11.40;99.90
63771;DHT22;60282;43.862;18.430;2023-04-24T03:23:08;11.50;99.90
63771;DHT22;60282;43.862;18.430;2023-04-24T03:25:33;11.60;99.90
63771;DHT22;60282;43.862;18.430;2023-04-24T03:27:59;11.60;99.90
63771;DHT22;60282;43.862;18.430;2023-04-24T03:30:25;11.60;99.90
63771;DHT22;60282;43.862;18.430;2023-04-24T03:32:52;11.60;99.90
63771;DHT22;60282;43.862;18.430;2023-04-24T03:35:18;11.60;99.90
63771;DHT22;60282;43.862;18.430;2023-04-24T03:37:43;11.50;99.90
63771;DHT22;60282;43.862;18.430;2023-04-24T03:40:09;11.40;99.90
63771;DHT22;60282;43.862;18.430;2023-04-24T03:42:35;11.30;99.90
63771;DHT22;60282;43.862;18.430;2023-04-24T03:45:01;11.40;99.90
63771;DHT22;60282;43.862;18.430;2023-04-24T03:47:27;11.30;99.90
63771;DHT22;60282;43.862;18.430;2023-04-24T03:49:52;11.30;99.90
63771;DHT22;60282;43.862;18.430;2023-04-24T03:52:19;11.40;99.90
63771;DHT22;60282;43.862;18.430;2023-04-24T03:54:45;11.30;99.90
63771;DHT22;60282;43.862;18.430;2023-04-24T03:57:11;11.30;99.90
63771;DHT22;60282;43.862;18.430;2023-04-24T03:59:38;11.30;99.90
63771;DHT22;60282;43.862;18.430;2023-04-24T04:02:03;11.20;99.90
63771;DHT22;60282;43.862;18.430;2023-04-24T04:04:29;11.20;99.90
63771;DHT22;60282;43.862;18.430;2023-04-24T04:06:55;11.20;99.90
63771;DHT22;60282;43.862;18.430;2023-04-24T04:09:21;11.20;99.90
63771;DHT22;60282;43.862;18.430;2023-04-24T04:11:47;11.00;99.90
63771;DHT22;60282;43.862;18.430;2023-04-24T04:14:13;11.10;99.90
63771;DHT22;60282;43.862;18.430;2023-04-24T04:16:39;11.00;99.90
63771;DHT22;60282;43.862;18.430;2023-04-24T04:19:04;11.10;99.90
63771;DHT22;60282;43.862;18.430;2023-04-24T04:21:30;11.10;99.90
63771;DHT22;60282;43.862;18.430;2023-04-24T04:23:57;11.10;99.90
63771;DHT22;60282;43.862;18.430;2023-04-24T04:26:23;11.10;99.90
63771;DHT22;60282;43.862;18.430;2023-04-24T04:28:51;10.90;99.90
63771;DHT22;60282;43.862;18.430;2023-04-24T04:31:17;10.80;99.90
63771;DHT22;60282;43.862;18.430;2023-04-24T04:33:43;10.80;99.90
63771;DHT22;60282;43.862;18.430;2023-04-24T04:36:08;10.80;99.90
63771;DHT22;60282;43.862;18.430;2023-04-24T04:38:34;10.90;99.90
63771;DHT22;60282;43.862;18.430;2023-04-24T04:41:00;10.80;99.90
63771;DHT22;60282;43.862;18.430;2023-04-24T04:43:26;10.80;99.90
63771;DHT22;60282;43.862;18.430;2023-04-24T04:45:52;10.80;99.90
63771;DHT22;60282;43.862;18.430;2023-04-24T04:48:19;10.80;99.90
63771;DHT22;60282;43.862;18.430;2023-04-24T04:50:45;10.90;99.90
63771;DHT22;60282;43.862;18.430;2023-04-24T04:53:11;11.00;99.90
63771;DHT22;60282;43.862;18.430;2023-04-24T04:55:37;11.00;99.90
63771;DHT22;60282;43.862;18.430;2023-04-24T04:58:05;11.10;99.90
63771;DHT22;60282;43.862;18.430;2023-04-24T05:00:31;10.90;99.90
63771;DHT22;60282;43.862;18.430;2023-04-24T05:03:01;11.10;99.90
63771;DHT22;60282;43.862;18.430;2023-04-24T05:05:27;11.10;99.90
63771;DHT22;60282;43.862;18.430;2023-04-24T05:07:53;11.10;99.90
63771;DHT22;60282;43.862;18.430;2023-04-24T05:10:18;11.10;99.90
63771;DHT22;60282;43.862;18.430;2023-04-24T05:12:44;11.00;99.90
63771;DHT22;60282;43.862;18.430;2023-04-24T05:15:10;11.00;99.90
63771;DHT22;60282;43.862;18.430;2023-04-24T05:17:36;11.00;99.90
63771;DHT22;60282;43.862;18.430;2023-04-24T05:20:03;11.00;99.90
63771;DHT22;60282;43.862;18.430;2023-04-24T05:22:31;9.90;99.90
63771;DHT22;60282;43.862;18.430;2023-04-24T05:24:57;11.00;99.90
63771;DHT22;60282;43.862;18.430;2023-04-24T05:27:23;11.00;99.90
63771;DHT22;60282;43.862;18.430;2023-04-24T05:29:48;11.00;99.90
63771;DHT22;60282;43.862;18.430;2023-04-24T05:32:14;11.00;99.90
63771;DHT22;60282;43.862;18.430;2023-04-24T05:34:40;11.00;99.90
63771;DHT22;60282;43.862;18.430;2023-04-24T05:37:06;11.00;99.90
63771;DHT22;60282;43.862;18.430;2023-04-24T05:39:34;11.00;99.90
63771;DHT22;60282;43.862;18.430;2023-04-24T05:42:00;11.10;99.90
63771;DHT22;60282;43.862;18.430;2023-04-24T05:44:27;11.20;99.90
63771;DHT22;60282;43.862;18.430;2023-04-24T05:46:53;11.30;99.90
63771;DHT22;60282;43.862;18.430;2023-04-24T05:49:20;11.50;99.90
63771;DHT22;60282;43.862;18.430;2023-04-24T05:51:46;11.60;99.90
63771;DHT22;60282;43.862;18.430;2023-04-24T05:54:12;11.60;99.90
63771;DHT22;60282;43.862;18.430;2023-04-24T05:56:38;11.70;99.90
63771;DHT22;60282;43.862;18.430;2023-04-24T05:59:04;11.70;99.90
63771;DHT22;60282;43.862;18.430;2023-04-24T06:01:30;11.80;99.90
63771;DHT22;60282;43.862;18.430;2023-04-24T06:03:56;11.80;99.90
63771;DHT22;60282;43.862;18.430;2023-04-24T06:06:23;11.90;99.90
63771;DHT22;60282;43.862;18.430;2023-04-24T06:08:49;12.00;99.90
63771;DHT22;60282;43.862;18.430;2023-04-24T06:11:15;12.20;99.90
63771;DHT22;60282;43.862;18.430;2023-04-24T06:13:41;12.30;99.90
63771;DHT22;60282;43.862;18.430;2023-04-24T06:16:07;12.50;99.90
63771;DHT22;60282;43.862;18.430;2023-04-24T06:18:33;12.60;99.90
63771;DHT22;60282;43.862;18.430;2023-04-24T06:20:59;12.80;99.90
63771;DHT22;60282;43.862;18.430;2023-04-24T06:23:24;13.10;99.90
63771;DHT22;60282;43.862;18.430;2023-04-24T06:25:51;13.30;99.90
63771;DHT22;60282;43.862;18.430;2023-04-24T06:28:17;13.50;99.90
63771;DHT22;60282;43.862;18.430;2023-04-24T06:30:42;13.60;99.90
63771;DHT22;60282;43.862;18.430;2023-04-24T06:33:09;12.50;99.90
63771;DHT22;60282;43.862;18.430;2023-04-24T06:35:36;13.90;99.90
63771;DHT22;60282;43.862;18.430;2023-04-24T06:38:03;14.00;99.90
63771;DHT22;60282;43.862;18.430;2023-04-24T06:40:29;14.10;99.90
63771;DHT22;60282;43.862;18.430;2023-04-24T06:42:55;14.10;99.90
63771;DHT22;60282;43.862;18.430;2023-04-24T06:45:21;14.10;99.90
63771;DHT22;60282;43.862;18.430;2023-04-24T06:47:47;14.10;99.90
63771;DHT22;60282;43.862;18.430;2023-04-24T06:50:12;14.00;99.90
63771;DHT22;60282;43.862;18.430;2023-04-24T06:52:38;14.00;99.90
63771;DHT22;60282;43.862;18.430;2023-04-24T06:55:05;14.10;99.90
63771;DHT22;60282;43.862;18.430;2023-04-24T06:57:31;14.00;99.90
63771;DHT22;60282;43.862;18.430;2023-04-24T06:59:57;13.90;99.90
63771;DHT22;60282;43.862;18.430;2023-04-24T07:02:23;13.90;99.90
63771;DHT22;60282;43.862;18.430;2023-04-24T07:04:48;13.70;99.90
63771;DHT22;60282;43.862;18.430;2023-04-24T07:07:14;13.70;99.90
63771;DHT22;60282;43.862;18.430;2023-04-24T07:09:41;13.60;99.90
63771;DHT22;60282;43.862;18.430;2023-04-24T07:12:08;13.70;99.90
63771;DHT22;60282;43.862;18.430;2023-04-24T07:14:39;13.70;99.90
63771;DHT22;60282;43.862;18.430;2023-04-24T07:17:05;13.80;99.90
63771;DHT22;60282;43.862;18.430;2023-04-24T07:19:32;13.80;99.90
63771;DHT22;60282;43.862;18.430;2023-04-24T07:21:58;13.90;99.90
63771;DHT22;60282;43.862;18.430;2023-04-24T07:24:25;14.10;99.90
63771;DHT22;60282;43.862;18.430;2023-04-24T07:26:52;14.20;99.90
63771;DHT22;60282;43.862;18.430;2023-04-24T07:29:18;14.40;99.90
63771;DHT22;60282;43.862;18.430;2023-04-24T07:31:45;14.40;99.90
63771;DHT22;60282;43.862;18.430;2023-04-24T07:34:11;14.30;99.90
63771;DHT22;60282;43.862;18.430;2023-04-24T07:36:37;14.40;99.90
63771;DHT22;60282;43.862;18.430;2023-04-24T07:39:04;14.50;99.90
63771;DHT22;60282;43.862;18.430;2023-04-24T07:41:30;14.60;99.90
63771;DHT22;60282;43.862;18.430;2023-04-24T07:43:56;14.60;99.90
63771;DHT22;60282;43.862;18.430;2023-04-24T07:46:21;14.70;99.90
63771;DHT22;60282;43.862;18.430;2023-04-24T07:48:48;14.80;99.90
63771;DHT22;60282;43.862;18.430;2023-04-24T07:51:15;14.80;99.90
63771;DHT22;60282;43.862;18.430;2023-04-24T07:53:41;15.00;99.90
63771;DHT22;60282;43.862;18.430;2023-04-24T07:56:07;15.10;99.90
63771;DHT22;60282;43.862;18.430;2023-04-24T07:58:33;15.10;99.90
63771;DHT22;60282;43.862;18.430;2023-04-24T08:00:59;15.20;99.90
63771;DHT22;60282;43.862;18.430;2023-04-24T08:03:25;15.10;99.90
63771;DHT22;60282;43.862;18.430;2023-04-24T08:05:50;15.20;99.90
63771;DHT22;60282;43.862;18.430;2023-04-24T08:08:16;15.20;99.90
63771;DHT22;60282;43.862;18.430;2023-04-24T08:10:42;15.20;99.90
63771;DHT22;60282;43.862;18.430;2023-04-24T08:13:08;15.30;99.90
63771;DHT22;60282;43.862;18.430;2023-04-24T08:15:34;15.40;99.90
63771;DHT22;60282;43.862;18.430;2023-04-24T08:18:00;15.30;99.90
63771;DHT22;60282;43.862;18.430;2023-04-24T08:20:26;16.60;99.90
63771;DHT22;60282;43.862;18.430;2023-04-24T08:22:52;15.40;99.90
63771;DHT22;60282;43.862;18.430;2023-04-24T08:25:18;15.50;99.90
63771;DHT22;60282;43.862;18.430;2023-04-24T08:27:44;15.50;99.90
63771;DHT22;60282;43.862;18.430;2023-04-24T08:30:10;15.70;99.90
63771;DHT22;60282;43.862;18.430;2023-04-24T08:32:36;15.70;99.90
63771;DHT22;60282;43.862;18.430;2023-04-24T08:35:03;15.70;99.90
63771;DHT22;60282;43.862;18.430;2023-04-24T08:37:29;15.70;99.90
63771;DHT22;60282;43.862;18.430;2023-04-24T08:39:54;15.80;99.90
63771;DHT22;60282;43.862;18.430;2023-04-24T08:42:21;15.50;99.90
63771;DHT22;60282;43.862;18.430;2023-04-24T08:44:49;15.60;99.90
63771;DHT22;60282;43.862;18.430;2023-04-24T08:47:15;15.70;99.90
63771;DHT22;60282;43.862;18.430;2023-04-24T08:49:41;15.90;99.90
63771;DHT22;60282;43.862;18.430;2023-04-24T08:52:08;16.10;99.90
63771;DHT22;60282;43.862;18.430;2023-04-24T08:54:35;16.30;99.90
63771;DHT22;60282;43.862;18.430;2023-04-24T08:57:02;16.50;99.90
63771;DHT22;60282;43.862;18.430;2023-04-24T08:59:30;16.60;99.90
63771;DHT22;60282;43.862;18.430;2023-04-24T09:01:56;16.70;99.90
63771;DHT22;60282;43.862;18.430;2023-04-24T09:04:24;16.60;99.90
63771;DHT22;60282;43.862;18.430;2023-04-24T09:06:57;16.40;99.90
63771;DHT22;60282;43.862;18.430;2023-04-24T09:09:24;16.60;99.70
63771;DHT22;60282;43.862;18.430;2023-04-24T09:11:51;16.60;99.40
63771;DHT22;60282;43.862;18.430;2023-04-24T09:14:20;16.50;99.50
63771;DHT22;60282;43.862;18.430;2023-04-24T09:16:46;16.60;99.90
63771;DHT22;60282;43.862;18.430;2023-04-24T09:19:13;16.70;98.20
63771;DHT22;60282;43.862;18.430;2023-04-24T09:21:38;16.80;97.80
63771;DHT22;60282;43.862;18.430;2023-04-24T09:24:07;17.00;97.70
63771;DHT22;60282;43.862;18.430;2023-04-24T09:26:36;17.00;98.00
63771;DHT22;60282;43.862;18.430;2023-04-24T09:29:04;17.00;97.30
63771;DHT22;60282;43.862;18.430;2023-04-24T09:31:30;17.10;97.40
63771;DHT22;60282;43.862;18.430;2023-04-24T09:34:03;16.50;98.00
63771;DHT22;60282;43.862;18.430;2023-04-24T09:36:33;17.20;96.60
63771;DHT22;60282;43.862;18.430;2023-04-24T09:39:13;17.20;96.40
63771;DHT22;60282;43.862;18.430;2023-04-24T09:44:19;17.20;97.30
63771;DHT22;60282;43.862;18.430;2023-04-24T09:46:58;17.10;96.70
63771;DHT22;60282;43.862;18.430;2023-04-24T09:49:34;16.80;97.70
63771;DHT22;60282;43.862;18.430;2023-04-24T09:52:10;16.70;98.40
63771;DHT22;60282;43.862;18.430;2023-04-24T09:54:37;16.60;98.10
63771;DHT22;60282;43.862;18.430;2023-04-24T09:57:03;16.60;98.10
63771;DHT22;60282;43.862;18.430;2023-04-24T09:59:29;16.70;98.30
63771;DHT22;60282;43.862;18.430;2023-04-24T10:01:55;16.50;97.80
63771;DHT22;60282;43.862;18.430;2023-04-24T10:04:23;16.50;98.20
63771;DHT22;60282;43.862;18.430;2023-04-24T10:06:51;16.60;98.00
63771;DHT22;60282;43.862;18.430;2023-04-24T10:09:19;16.60;97.50
63771;DHT22;60282;43.862;18.430;2023-04-24T10:11:47;16.60;97.90
63771;DHT22;60282;43.862;18.430;2023-04-24T10:14:19;16.70;98.40
63771;DHT22;60282;43.862;18.430;2023-04-24T10:16:46;16.70;98.20
63771;DHT22;60282;43.862;18.430;2023-04-24T10:19:13;16.70;98.00
63771;DHT22;60282;43.862;18.430;2023-04-24T10:21:40;16.70;98.20
63771;DHT22;60282;43.862;18.430;2023-04-24T10:24:08;16.80;98.40
63771;DHT22;60282;43.862;18.430;2023-04-24T10:26:34;16.80;98.20
63771;DHT22;60282;43.862;18.430;2023-04-24T10:29:01;16.90;97.80
63771;DHT22;60282;43.862;18.430;2023-04-24T10:31:29;16.90;97.50
63771;DHT22;60282;43.862;18.430;2023-04-24T10:33:56;17.00;97.40
63771;DHT22;60282;43.862;18.430;2023-04-24T10:36:24;17.00;97.90
63771;DHT22;60282;43.862;18.430;2023-04-24T10:38:53;17.00;97.30
63771;DHT22;60282;43.862;18.430;2023-04-24T10:41:20;18.70;97.50
63771;DHT22;60282;43.862;18.430;2023-04-24T10:44:03;17.20;97.00
63771;DHT22;60282;43.862;18.430;2023-04-24T10:46:30;17.00;97.00
63771;DHT22;60282;43.862;18.430;2023-04-24T10:48:56;17.00;97.80
63771;DHT22;60282;43.862;18.430;2023-04-24T10:51:24;17.10;97.50
63771;DHT22;60282;43.862;18.430;2023-04-24T10:53:51;17.10;97.90
63771;DHT22;60282;43.862;18.430;2023-04-24T10:56:17;17.10;96.10
63771;DHT22;60282;43.862;18.430;2023-04-24T10:58:51;17.20;96.10
63771;DHT22;60282;43.862;18.430;2023-04-24T11:01:25;17.20;95.90
63771;DHT22;60282;43.862;18.430;2023-04-24T11:03:56;17.20;95.60
63771;DHT22;60282;43.862;18.430;2023-04-24T11:06:35;17.30;96.20
63771;DHT22;60282;43.862;18.430;2023-04-24T11:09:11;17.30;96.20
63771;DHT22;60282;43.862;18.430;2023-04-24T11:11:45;17.20;96.80
63771;DHT22;60282;43.862;18.430;2023-04-24T11:14:14;17.00;96.80
63771;DHT22;60282;43.862;18.430;2023-04-24T11:16:53;17.00;97.80
63771;DHT22;60282;43.862;18.430;2023-04-24T11:19:24;17.10;97.30
63771;DHT22;60282;43.862;18.430;2023-04-24T11:22:03;17.00;96.90
63771;DHT22;60282;43.862;18.430;2023-04-24T11:24:39;16.90;98.40
63771;DHT22;60282;43.862;18.430;2023-04-24T11:34:46;19.10;97.70
63771;DHT22;60282;43.862;18.430;2023-04-24T11:37:13;17.10;97.50
63771;DHT22;60282;43.862;18.430;2023-04-24T11:39:40;17.00;97.90
63771;DHT22;60282;43.862;18.430;2023-04-24T11:42:07;17.00;98.40
63771;DHT22;60282;43.862;18.430;2023-04-24T11:44:34;16.80;98.30
63771;DHT22;60282;43.862;18.430;2023-04-24T11:47:04;16.80;98.90
63771;DHT22;60282;43.862;18.430;2023-04-24T11:49:30;14.90;99.70
63771;DHT22;60282;43.862;18.430;2023-04-24T11:51:56;16.50;99.90
63771;DHT22;60282;43.862;18.430;2023-04-24T11:54:22;16.50;99.90
63771;DHT22;60282;43.862;18.430;2023-04-24T11:56:48;16.60;99.20
63771;DHT22;60282;43.862;18.430;2023-04-24T11:59:14;16.60;99.40
63771;DHT22;60282;43.862;18.430;2023-04-24T12:01:46;16.60;98.90
63771;DHT22;60282;43.862;18.430;2023-04-24T12:04:12;16.60;98.90
63771;DHT22;60282;43.862;18.430;2023-04-24T12:06:38;16.60;99.10
63771;DHT22;60282;43.862;18.430;2023-04-24T12:09:04;16.60;99.20
63771;DHT22;60282;43.862;18.430;2023-04-24T12:11:30;16.70;99.40
63771;DHT22;60282;43.862;18.430;2023-04-24T12:13:56;16.70;99.40
63771;DHT22;60282;43.862;18.430;2023-04-24T12:16:22;16.50;98.90
63771;DHT22;60282;43.862;18.430;2023-04-24T12:18:50;16.40;99.60
63771;DHT22;60282;43.862;18.430;2023-04-24T12:21:24;16.30;99.90
63771;DHT22;60282;43.862;18.430;2023-04-24T12:23:54;17.80;99.90
63771;DHT22;60282;43.862;18.430;2023-04-24T12:26:20;16.10;99.90
63771;DHT22;60282;43.862;18.430;2023-04-24T12:28:49;16.00;99.90
63771;DHT22;60282;43.862;18.430;2023-04-24T12:31:16;15.80;99.90
63771;DHT22;60282;43.862;18.430;2023-04-24T12:33:42;15.80;99.90
63771;DHT22;60282;43.862;18.430;2023-04-24T12:36:11;15.80;99.90
63771;DHT22;60282;43.862;18.430;2023-04-24T12:38:43;15.90;99.90
63771;DHT22;60282;43.862;18.430;2023-04-24T12:41:13;15.80;99.90
63771;DHT22;60282;43.862;18.430;2023-04-24T12:43:51;15.90;99.90
63771;DHT22;60282;43.862;18.430;2023-04-24T12:46:16;16.00;99.90
63771;DHT22;60282;43.862;18.430;2023-04-24T12:48:42;16.10;99.90
63771;DHT22;60282;43.862;18.430;2023-04-24T12:51:08;16.10;99.90
63771;DHT22;60282;43.862;18.430;2023-04-24T12:53:33;16.10;99.90
63771;DHT22;60282;43.862;18.430;2023-04-24T12:55:59;16.20;99.90
63771;DHT22;60282;43.862;18.430;2023-04-24T12:58:25;16.20;99.90
63771;DHT22;60282;43.862;18.430;2023-04-24T13:00:51;16.20;99.90
63771;DHT22;60282;43.862;18.430;2023-04-24T13:03:17;16.30;99.90
63771;DHT22;60282;43.862;18.430;2023-04-24T13:05:43;16.20;99.90
63771;DHT22;60282;43.862;18.430;2023-04-24T13:08:09;16.20;99.90
63771;DHT22;60282;43.862;18.430;2023-04-24T13:10:35;16.30;99.90
63771;DHT22;60282;43.862;18.430;2023-04-24T13:13:01;16.40;99.90
63771;DHT22;60282;43.862;18.430;2023-04-24T13:15:27;16.50;99.70
63771;DHT22;60282;43.862;18.430;2023-04-24T13:17:52;16.60;99.90
63771;DHT22;60282;43.862;18.430;2023-04-24T13:20:18;16.80;99.90
63771;DHT22;60282;43.862;18.430;2023-04-24T13:22:44;16.80;99.90
63771;DHT22;60282;43.862;18.430;2023-04-24T13:25:10;17.00;99.90
63771;DHT22;60282;43.862;18.430;2023-04-24T13:27:37;17.20;98.60
63771;DHT22;60282;43.862;18.430;2023-04-24T13:30:03;17.40;97.50
63771;DHT22;60282;43.862;18.430;2023-04-24T13:32:29;17.30;96.90
63771;DHT22;60282;43.862;18.430;2023-04-24T13:34:56;17.20;97.30
63771;DHT22;60282;43.862;18.430;2023-04-24T13:37:22;17.40;95.80
63771;DHT22;60282;43.862;18.430;2023-04-24T13:39:48;17.40;95.50
63771;DHT22;60282;43.862;18.430;2023-04-24T13:42:14;17.30;95.90
63771;DHT22;60282;43.862;18.430;2023-04-24T13:44:40;17.10;95.90
63771;DHT22;60282;43.862;18.430;2023-04-24T13:47:05;16.90;97.00
63771;DHT22;60282;43.862;18.430;2023-04-24T13:49:31;16.80;97.70
63771;DHT22;60282;43.862;18.430;2023-04-24T13:51:57;16.70;97.00
63771;DHT22;60282;43.862;18.430;2023-04-24T13:54:23;17.90;98.00
63771;DHT22;60282;43.862;18.430;2023-04-24T13:56:51;16.70;97.90
63771;DHT22;60282;43.862;18.430;2023-04-24T13:59:22;16.80;98.20
63771;DHT22;60282;43.862;18.430;2023-04-24T14:01:47;16.80;97.60
63771;DHT22;60282;43.862;18.430;2023-04-24T14:04:13;16.90;97.40
63771;DHT22;60282;43.862;18.430;2023-04-24T14:06:39;16.90;97.30
63771;DHT22;60282;43.862;18.430;2023-04-24T14:09:06;17.00;97.10
63771;DHT22;60282;43.862;18.430;2023-04-24T14:11:33;17.00;96.90
63771;DHT22;60282;43.862;18.430;2023-04-24T14:13:59;17.10;96.60
63771;DHT22;60282;43.862;18.430;2023-04-24T14:16:25;17.00;96.50
63771;DHT22;60282;43.862;18.430;2023-04-24T14:18:50;16.90;96.80
63771;DHT22;60282;43.862;18.430;2023-04-24T14:21:16;16.80;96.80
63771;DHT22;60282;43.862;18.430;2023-04-24T14:23:42;16.70;97.30
63771;DHT22;60282;43.862;18.430;2023-04-24T14:26:08;16.60;97.70
63771;DHT22;60282;43.862;18.430;2023-04-24T14:28:33;16.50;98.10
63771;DHT22;60282;43.862;18.430;2023-04-24T14:30:59;16.50;98.60
63771;DHT22;60282;43.862;18.430;2023-04-24T14:33:25;16.50;98.60
63771;DHT22;60282;43.862;18.430;2023-04-24T14:35:51;16.40;99.60
63771;DHT22;60282;43.862;18.430;2023-04-24T14:38:16;16.30;99.90
63771;DHT22;60282;43.862;18.430;2023-04-24T14:40:42;16.10;99.60
63771;DHT22;60282;43.862;18.430;2023-04-24T14:43:08;16.00;99.90
63771;DHT22;60282;43.862;18.430;2023-04-24T14:45:34;16.00;99.90
63771;DHT22;60282;43.862;18.430;2023-04-24T14:48:00;16.00;99.90
63771;DHT22;60282;43.862;18.430;2023-04-24T14:50:25;16.00;99.90
63771;DHT22;60282;43.862;18.430;2023-04-24T14:52:54;16.00;99.90
63771;DHT22;60282;43.862;18.430;2023-04-24T14:55:22;15.80;99.90
63771;DHT22;60282;43.862;18.430;2023-04-24T14:57:48;15.70;99.90
63771;DHT22;60282;43.862;18.430;2023-04-24T15:00:14;15.60;99.90
63771;DHT22;60282;43.862;18.430;2023-04-24T15:02:42;15.40;99.90
63771;DHT22;60282;43.862;18.430;2023-04-24T15:05:10;15.20;99.90
63771;DHT22;60282;43.862;18.430;2023-04-24T15:07:36;15.10;99.90
63771;DHT22;60282;43.862;18.430;2023-04-24T15:10:03;14.90;99.90
63771;DHT22;60282;43.862;18.430;2023-04-24T15:12:29;14.90;99.90
63771;DHT22;60282;43.862;18.430;2023-04-24T15:14:55;14.80;99.90
63771;DHT22;60282;43.862;18.430;2023-04-24T15:17:20;14.70;99.90
63771;DHT22;60282;43.862;18.430;2023-04-24T15:19:46;14.60;99.90
63771;DHT22;60282;43.862;18.430;2023-04-24T15:22:13;14.60;99.90
63771;DHT22;60282;43.862;18.430;2023-04-24T15:24:39;14.60;99.90